ADDS METAR Data INFO
IDs: Format: Raw Decoded Include TAF

Data at: 1118 UTC 21 Feb 2018

PATK 201453Z AUTO 00000KT 10SM OVC110 M08/M10 A3041 RMK AO2 SLP306 T10831100 53006 TSNO
PATK 201353Z AUTO 00000KT 10SM OVC100 M09/M11 A3040 RMK AO2 SLP304 T10891106 TSNO
PATK 201253Z AUTO 00000KT 10SM OVC080 M09/M11 A3037 RMK AO2 SLP292 T10941111 TSNO
PATK 201153Z AUTO 00000KT 10SM OVC110 M11/M12 A3039 RMK AO2 SLP300 T11061122 11106 21150 51014 TSNO
PATK 201053Z AUTO 00000KT 10SM BKN120 M12/M14 A3039 RMK AO2 SLP300 T11221144 TSNO
PATK 200953Z AUTO 00000KT 9SM CLR M13/M16 A3037 RMK AO2 SLP296 T11331156 TSNO
PATK 200853Z AUTO 00000KT 10SM CLR M12/M14 A3035 RMK AO2 SLP289 T11221144 410331178 55001 TSNO
PATK 200753Z AUTO 00000KT 9SM CLR M13/M16 A3034 RMK AO2 SLP286 T11331156 TSNO
PATK 200653Z AUTO 00000KT 10SM CLR M13/M14 A3036 RMK AO2 SLP294 T11281144 TSNO
PATK 200553Z AUTO 00000KT 9SM CLR M12/M12 A3035 RMK AO2 SLP290 I1000 I6000 T11171122 11033 21139 50000 TSNO
PATK 200453Z AUTO 04003KT 10SM CLR M11/M11 A3037 RMK AO2 SLP296 I1000 T11061111 TSNO
PATK 200422Z AUTO 00000KT 3SM BR FEW002 M11/M12 A3037 RMK AO2 T11111117 TSNO
PATK 200417Z AUTO 00000KT 1 1/4SM BR FEW002 M10/M11 A3037 RMK AO2 T11001111 TSNO
PATK 200409Z AUTO 00000KT 1/2SM FZFG VV002 M11/M12 A3037 RMK AO2 T11061117 TSNO
PATK 200402Z AUTO 00000KT 1/2SM FZFG CLR M10/M11 A3037 RMK AO2 T11001111 TSNO
PATK 200353Z AUTO 00000KT 1 1/2SM BR CLR M10/M12 A3036 RMK AO2 VIS 1/2V5 SLP293 T11001117 TSNO
PATK 200253Z AUTO 00000KT 10SM CLR M07/M08 A3036 RMK AO2 SLP288 T10671078 57000 TSNO
PATK 200153Z 23004KT 10SM CLR M05/M08 A3036 RMK AO2 SLP289 T10501078
PATK 200053Z 22005KT 10SM CLR M04/M07 A3036 RMK AO2 SLP289 T10441072
PATK 192353Z 00000KT 10SM CLR M04/M07 A3036 RMK AO2 SLP288 T10391072 11039 21178 56024